sensor_id;sensor_type;location;lat;lon;timestamp;P1;durP1;ratioP1;P2;durP2;ratioP2
13872;SDS011;7006;51.494;11.964;2022-09-19T00:00:37;8.03;;;2.60;;
13872;SDS011;7006;51.494;11.964;2022-09-19T00:03:04;5.40;;;2.50;;
13872;SDS011;7006;51.494;11.964;2022-09-19T00:05:31;5.07;;;2.40;;
13872;SDS011;7006;51.494;11.964;2022-09-19T00:07:57;3.97;;;2.10;;
13872;SDS011;7006;51.494;11.964;2022-09-19T00:10:23;4.10;;;2.17;;
13872;SDS011;7006;51.494;11.964;2022-09-19T00:12:51;4.30;;;2.07;;
13872;SDS011;7006;51.494;11.964;2022-09-19T00:15:17;5.13;;;1.83;;
13872;SDS011;7006;51.494;11.964;2022-09-19T00:17:45;4.33;;;2.80;;
13872;SDS011;7006;51.494;11.964;2022-09-19T00:20:14;3.97;;;2.50;;
13872;SDS011;7006;51.494;11.964;2022-09-19T00:22:40;3.33;;;2.03;;
13872;SDS011;7006;51.494;11.964;2022-09-19T00:25:27;2.93;;;2.20;;
13872;SDS011;7006;51.494;11.964;2022-09-19T00:27:53;6.07;;;2.80;;
13872;SDS011;7006;51.494;11.964;2022-09-19T00:30:20;3.67;;;2.10;;
13872;SDS011;7006;51.494;11.964;2022-09-19T00:32:47;3.73;;;2.07;;
13872;SDS011;7006;51.494;11.964;2022-09-19T00:35:15;3.50;;;1.97;;
13872;SDS011;7006;51.494;11.964;2022-09-19T00:37:41;6.43;;;2.77;;
13872;SDS011;7006;51.494;11.964;2022-09-19T00:40:08;8.30;;;3.30;;
13872;SDS011;7006;51.494;11.964;2022-09-19T00:42:34;5.30;;;2.80;;
13872;SDS011;7006;51.494;11.964;2022-09-19T00:45:02;5.40;;;3.13;;
13872;SDS011;7006;51.494;11.964;2022-09-19T00:47:30;4.30;;;3.37;;
13872;SDS011;7006;51.494;11.964;2022-09-19T00:50:00;9.20;;;3.30;;
13872;SDS011;7006;51.494;11.964;2022-09-19T00:52:32;6.00;;;3.57;;
13872;SDS011;7006;51.494;11.964;2022-09-19T00:54:59;6.70;;;3.67;;
13872;SDS011;7006;51.494;11.964;2022-09-19T00:57:28;7.63;;;4.03;;
13872;SDS011;7006;51.494;11.964;2022-09-19T00:59:58;6.23;;;4.07;;
13872;SDS011;7006;51.494;11.964;2022-09-19T01:02:25;6.13;;;4.10;;
13872;SDS011;7006;51.494;11.964;2022-09-19T01:04:53;7.20;;;4.63;;
13872;SDS011;7006;51.494;11.964;2022-09-19T01:07:21;6.20;;;4.33;;
13872;SDS011;7006;51.494;11.964;2022-09-19T01:09:54;8.57;;;4.80;;
13872;SDS011;7006;51.494;11.964;2022-09-19T01:12:26;6.50;;;4.40;;
13872;SDS011;7006;51.494;11.964;2022-09-19T01:15:09;8.93;;;4.70;;
13872;SDS011;7006;51.494;11.964;2022-09-19T01:17:39;9.33;;;5.00;;
13872;SDS011;7006;51.494;11.964;2022-09-19T01:22:55;6.77;;;4.67;;
13872;SDS011;7006;51.494;11.964;2022-09-19T01:25:29;7.67;;;4.77;;
13872;SDS011;7006;51.494;11.964;2022-09-19T01:28:11;6.77;;;5.00;;
13872;SDS011;7006;51.494;11.964;2022-09-19T01:30:44;7.30;;;4.40;;
13872;SDS011;7006;51.494;11.964;2022-09-19T01:33:13;7.23;;;4.80;;
13872;SDS011;7006;51.494;11.964;2022-09-19T01:35:44;6.17;;;4.77;;
13872;SDS011;7006;51.494;11.964;2022-09-19T01:38:12;7.90;;;4.40;;
13872;SDS011;7006;51.494;11.964;2022-09-19T01:40:41;8.77;;;5.00;;
13872;SDS011;7006;51.494;11.964;2022-09-19T01:43:12;7.63;;;5.07;;
13872;SDS011;7006;51.494;11.964;2022-09-19T01:45:39;12.37;;;5.70;;
13872;SDS011;7006;51.494;11.964;2022-09-19T01:48:09;6.77;;;5.53;;
13872;SDS011;7006;51.494;11.964;2022-09-19T01:50:43;10.83;;;4.67;;
13872;SDS011;7006;51.494;11.964;2022-09-19T01:53:14;8.23;;;4.93;;
13872;SDS011;7006;51.494;11.964;2022-09-19T01:55:47;6.90;;;5.10;;
13872;SDS011;7006;51.494;11.964;2022-09-19T01:58:17;7.40;;;4.60;;
13872;SDS011;7006;51.494;11.964;2022-09-19T02:00:47;6.63;;;4.90;;
13872;SDS011;7006;51.494;11.964;2022-09-19T02:03:16;6.80;;;5.57;;
13872;SDS011;7006;51.494;11.964;2022-09-19T02:05:48;7.70;;;5.03;;
13872;SDS011;7006;51.494;11.964;2022-09-19T02:08:17;7.40;;;4.40;;
13872;SDS011;7006;51.494;11.964;2022-09-19T02:10:47;7.17;;;4.97;;
13872;SDS011;7006;51.494;11.964;2022-09-19T02:13:17;9.03;;;4.70;;
13872;SDS011;7006;51.494;11.964;2022-09-19T02:15:49;10.23;;;4.43;;
13872;SDS011;7006;51.494;11.964;2022-09-19T02:18:18;10.13;;;5.53;;
13872;SDS011;7006;51.494;11.964;2022-09-19T02:20:49;8.50;;;4.30;;
13872;SDS011;7006;51.494;11.964;2022-09-19T02:23:18;6.37;;;4.70;;
13872;SDS011;7006;51.494;11.964;2022-09-19T02:25:47;8.70;;;4.50;;
13872;SDS011;7006;51.494;11.964;2022-09-19T02:28:16;6.60;;;4.63;;
13872;SDS011;7006;51.494;11.964;2022-09-19T02:30:45;8.47;;;3.93;;
13872;SDS011;7006;51.494;11.964;2022-09-19T02:33:11;5.37;;;4.40;;
13872;SDS011;7006;51.494;11.964;2022-09-19T02:35:40;6.80;;;4.33;;
13872;SDS011;7006;51.494;11.964;2022-09-19T02:38:10;7.37;;;4.77;;
13872;SDS011;7006;51.494;11.964;2022-09-19T02:40:41;8.67;;;4.50;;
13872;SDS011;7006;51.494;11.964;2022-09-19T02:43:14;6.33;;;4.30;;
13872;SDS011;7006;51.494;11.964;2022-09-19T02:45:45;7.30;;;4.93;;
13872;SDS011;7006;51.494;11.964;2022-09-19T02:48:16;7.30;;;4.93;;
13872;SDS011;7006;51.494;11.964;2022-09-19T02:50:45;6.33;;;4.30;;
13872;SDS011;7006;51.494;11.964;2022-09-19T02:53:16;5.43;;;4.47;;
13872;SDS011;7006;51.494;11.964;2022-09-19T02:55:45;10.40;;;6.00;;
13872;SDS011;7006;51.494;11.964;2022-09-19T02:58:12;7.03;;;4.23;;
13872;SDS011;7006;51.494;11.964;2022-09-19T03:00:40;5.27;;;4.50;;
13872;SDS011;7006;51.494;11.964;2022-09-19T03:03:10;7.30;;;4.87;;
13872;SDS011;7006;51.494;11.964;2022-09-19T03:05:52;7.67;;;4.97;;
13872;SDS011;7006;51.494;11.964;2022-09-19T03:08:19;8.47;;;5.03;;
13872;SDS011;7006;51.494;11.964;2022-09-19T03:10:49;8.53;;;4.43;;
13872;SDS011;7006;51.494;11.964;2022-09-19T03:13:17;7.23;;;4.97;;
13872;SDS011;7006;51.494;11.964;2022-09-19T03:15:50;7.20;;;5.17;;
13872;SDS011;7006;51.494;11.964;2022-09-19T03:18:20;7.87;;;5.40;;
13872;SDS011;7006;51.494;11.964;2022-09-19T03:20:47;7.30;;;4.93;;
13872;SDS011;7006;51.494;11.964;2022-09-19T03:23:15;6.67;;;4.80;;
13872;SDS011;7006;51.494;11.964;2022-09-19T03:25:43;10.00;;;7.37;;
13872;SDS011;7006;51.494;11.964;2022-09-19T03:28:10;7.00;;;4.90;;
13872;SDS011;7006;51.494;11.964;2022-09-19T03:30:36;6.47;;;4.73;;
13872;SDS011;7006;51.494;11.964;2022-09-19T03:33:02;6.90;;;5.13;;
13872;SDS011;7006;51.494;11.964;2022-09-19T03:35:31;5.70;;;4.40;;
13872;SDS011;7006;51.494;11.964;2022-09-19T03:37:57;7.93;;;4.83;;
13872;SDS011;7006;51.494;11.964;2022-09-19T03:40:24;7.33;;;4.60;;
13872;SDS011;7006;51.494;11.964;2022-09-19T03:42:51;6.57;;;4.53;;
13872;SDS011;7006;51.494;11.964;2022-09-19T03:45:18;6.00;;;5.20;;
13872;SDS011;7006;51.494;11.964;2022-09-19T03:47:44;8.10;;;5.60;;
13872;SDS011;7006;51.494;11.964;2022-09-19T03:50:11;7.40;;;5.57;;
13872;SDS011;7006;51.494;11.964;2022-09-19T03:52:39;7.40;;;4.63;;
13872;SDS011;7006;51.494;11.964;2022-09-19T03:55:06;6.47;;;4.60;;
13872;SDS011;7006;51.494;11.964;2022-09-19T03:57:33;6.60;;;5.07;;
13872;SDS011;7006;51.494;11.964;2022-09-19T03:59:59;8.83;;;4.83;;
13872;SDS011;7006;51.494;11.964;2022-09-19T04:02:25;6.57;;;5.10;;
13872;SDS011;7006;51.494;11.964;2022-09-19T04:04:52;9.33;;;5.40;;
13872;SDS011;7006;51.494;11.964;2022-09-19T04:07:20;8.13;;;5.43;;
13872;SDS011;7006;51.494;11.964;2022-09-19T04:09:48;10.33;;;5.90;;
13872;SDS011;7006;51.494;11.964;2022-09-19T04:12:14;10.13;;;5.93;;
13872;SDS011;7006;51.494;11.964;2022-09-19T04:14:41;8.37;;;5.47;;
13872;SDS011;7006;51.494;11.964;2022-09-19T04:17:07;6.87;;;5.80;;
13872;SDS011;7006;51.494;11.964;2022-09-19T04:19:35;7.47;;;5.70;;
13872;SDS011;7006;51.494;11.964;2022-09-19T04:22:01;7.90;;;6.10;;
13872;SDS011;7006;51.494;11.964;2022-09-19T04:24:27;8.40;;;6.33;;
13872;SDS011;7006;51.494;11.964;2022-09-19T04:26:55;8.53;;;6.07;;
13872;SDS011;7006;51.494;11.964;2022-09-19T04:29:31;8.97;;;6.13;;
13872;SDS011;7006;51.494;11.964;2022-09-19T04:31:58;7.60;;;6.00;;
13872;SDS011;7006;51.494;11.964;2022-09-19T04:34:27;8.50;;;6.50;;
13872;SDS011;7006;51.494;11.964;2022-09-19T04:36:53;9.33;;;6.20;;
13872;SDS011;7006;51.494;11.964;2022-09-19T04:39:21;7.87;;;5.97;;
13872;SDS011;7006;51.494;11.964;2022-09-19T04:41:47;6.30;;;5.53;;
13872;SDS011;7006;51.494;11.964;2022-09-19T04:44:19;7.93;;;5.73;;
13872;SDS011;7006;51.494;11.964;2022-09-19T04:46:47;6.90;;;5.97;;
13872;SDS011;7006;51.494;11.964;2022-09-19T04:49:15;6.20;;;5.00;;
13872;SDS011;7006;51.494;11.964;2022-09-19T04:51:41;6.50;;;5.33;;
13872;SDS011;7006;51.494;11.964;2022-09-19T04:54:08;5.57;;;4.60;;
13872;SDS011;7006;51.494;11.964;2022-09-19T04:56:34;4.80;;;4.17;;
13872;SDS011;7006;51.494;11.964;2022-09-19T04:59:01;4.63;;;4.23;;
13872;SDS011;7006;51.494;11.964;2022-09-19T05:01:29;6.23;;;3.30;;
13872;SDS011;7006;51.494;11.964;2022-09-19T05:03:56;8.70;;;3.90;;
13872;SDS011;7006;51.494;11.964;2022-09-19T05:06:23;5.43;;;3.67;;
13872;SDS011;7006;51.494;11.964;2022-09-19T05:08:52;4.00;;;3.53;;
13872;SDS011;7006;51.494;11.964;2022-09-19T05:11:18;4.27;;;3.20;;
13872;SDS011;7006;51.494;11.964;2022-09-19T05:13:47;8.33;;;3.30;;
13872;SDS011;7006;51.494;11.964;2022-09-19T05:16:14;3.73;;;3.07;;
13872;SDS011;7006;51.494;11.964;2022-09-19T05:18:43;4.00;;;2.97;;
13872;SDS011;7006;51.494;11.964;2022-09-19T05:21:10;4.93;;;3.00;;
13872;SDS011;7006;51.494;11.964;2022-09-19T05:23:37;3.40;;;2.60;;
13872;SDS011;7006;51.494;11.964;2022-09-19T05:26:04;3.50;;;2.67;;
13872;SDS011;7006;51.494;11.964;2022-09-19T05:28:31;3.90;;;2.77;;
13872;SDS011;7006;51.494;11.964;2022-09-19T05:30:57;3.37;;;2.83;;
13872;SDS011;7006;51.494;11.964;2022-09-19T05:33:29;5.47;;;3.17;;
13872;SDS011;7006;51.494;11.964;2022-09-19T05:35:58;2.70;;;2.23;;
13872;SDS011;7006;51.494;11.964;2022-09-19T05:38:25;3.73;;;3.00;;
13872;SDS011;7006;51.494;11.964;2022-09-19T05:40:52;6.33;;;3.20;;
13872;SDS011;7006;51.494;11.964;2022-09-19T05:43:18;4.67;;;3.30;;
13872;SDS011;7006;51.494;11.964;2022-09-19T05:45:45;3.30;;;2.60;;
13872;SDS011;7006;51.494;11.964;2022-09-19T05:48:11;4.00;;;3.10;;
13872;SDS011;7006;51.494;11.964;2022-09-19T05:50:39;5.27;;;3.40;;
13872;SDS011;7006;51.494;11.964;2022-09-19T05:53:07;3.93;;;3.30;;
13872;SDS011;7006;51.494;11.964;2022-09-19T05:55:51;3.50;;;3.10;;
13872;SDS011;7006;51.494;11.964;2022-09-19T05:58:18;5.30;;;4.20;;
13872;SDS011;7006;51.494;11.964;2022-09-19T06:00:46;7.27;;;5.47;;
13872;SDS011;7006;51.494;11.964;2022-09-19T06:03:12;7.73;;;6.93;;
13872;SDS011;7006;51.494;11.964;2022-09-19T06:05:41;10.13;;;7.67;;
13872;SDS011;7006;51.494;11.964;2022-09-19T06:08:10;12.20;;;7.90;;
13872;SDS011;7006;51.494;11.964;2022-09-19T06:10:37;9.37;;;7.87;;
13872;SDS011;7006;51.494;11.964;2022-09-19T06:13:04;12.23;;;9.70;;
13872;SDS011;7006;51.494;11.964;2022-09-19T06:15:31;14.03;;;10.90;;
13872;SDS011;7006;51.494;11.964;2022-09-19T06:17:57;14.27;;;11.43;;
13872;SDS011;7006;51.494;11.964;2022-09-19T06:20:24;19.87;;;13.80;;
13872;SDS011;7006;51.494;11.964;2022-09-19T06:22:54;18.60;;;14.73;;
13872;SDS011;7006;51.494;11.964;2022-09-19T06:25:23;20.90;;;15.60;;
13872;SDS011;7006;51.494;11.964;2022-09-19T06:27:54;20.10;;;15.07;;
13872;SDS011;7006;51.494;11.964;2022-09-19T06:30:20;22.07;;;16.10;;
13872;SDS011;7006;51.494;11.964;2022-09-19T06:32:47;23.00;;;17.50;;
13872;SDS011;7006;51.494;11.964;2022-09-19T06:35:14;25.97;;;16.83;;
13872;SDS011;7006;51.494;11.964;2022-09-19T06:37:40;24.43;;;17.10;;
13872;SDS011;7006;51.494;11.964;2022-09-19T06:40:07;23.33;;;17.07;;
13872;SDS011;7006;51.494;11.964;2022-09-19T06:42:35;25.20;;;17.87;;
13872;SDS011;7006;51.494;11.964;2022-09-19T06:45:02;24.50;;;17.23;;
13872;SDS011;7006;51.494;11.964;2022-09-19T06:47:31;26.50;;;16.90;;
13872;SDS011;7006;51.494;11.964;2022-09-19T06:49:57;22.30;;;16.73;;
13872;SDS011;7006;51.494;11.964;2022-09-19T06:52:25;23.80;;;15.20;;
13872;SDS011;7006;51.494;11.964;2022-09-19T06:54:51;22.07;;;16.00;;
13872;SDS011;7006;51.494;11.964;2022-09-19T06:57:18;20.30;;;15.17;;
13872;SDS011;7006;51.494;11.964;2022-09-19T06:59:45;19.70;;;14.70;;
13872;SDS011;7006;51.494;11.964;2022-09-19T07:02:12;17.47;;;13.17;;
13872;SDS011;7006;51.494;11.964;2022-09-19T07:04:38;17.97;;;12.80;;
13872;SDS011;7006;51.494;11.964;2022-09-19T07:07:05;17.80;;;13.00;;
13872;SDS011;7006;51.494;11.964;2022-09-19T07:09:31;19.43;;;13.63;;
13872;SDS011;7006;51.494;11.964;2022-09-19T07:11:57;22.43;;;12.50;;
13872;SDS011;7006;51.494;11.964;2022-09-19T07:14:26;19.30;;;12.27;;
13872;SDS011;7006;51.494;11.964;2022-09-19T07:16:56;16.43;;;12.50;;
13872;SDS011;7006;51.494;11.964;2022-09-19T07:19:22;18.30;;;12.47;;
13872;SDS011;7006;51.494;11.964;2022-09-19T07:21:50;14.03;;;10.90;;
13872;SDS011;7006;51.494;11.964;2022-09-19T07:24:17;13.93;;;11.17;;
13872;SDS011;7006;51.494;11.964;2022-09-19T07:26:43;13.20;;;10.47;;
13872;SDS011;7006;51.494;11.964;2022-09-19T07:29:09;13.57;;;10.23;;
13872;SDS011;7006;51.494;11.964;2022-09-19T07:31:36;14.73;;;10.63;;
13872;SDS011;7006;51.494;11.964;2022-09-19T07:34:03;15.40;;;11.37;;
13872;SDS011;7006;51.494;11.964;2022-09-19T07:36:30;16.73;;;9.97;;
13872;SDS011;7006;51.494;11.964;2022-09-19T07:38:56;12.63;;;9.47;;
13872;SDS011;7006;51.494;11.964;2022-09-19T07:41:22;11.83;;;9.40;;
13872;SDS011;7006;51.494;11.964;2022-09-19T07:43:49;11.23;;;9.63;;
13872;SDS011;7006;51.494;11.964;2022-09-19T07:46:15;11.17;;;8.77;;
13872;SDS011;7006;51.494;11.964;2022-09-19T07:48:42;12.07;;;9.57;;
13872;SDS011;7006;51.494;11.964;2022-09-19T07:51:10;11.77;;;9.17;;
13872;SDS011;7006;51.494;11.964;2022-09-19T07:53:36;11.50;;;9.33;;
13872;SDS011;7006;51.494;11.964;2022-09-19T07:56:03;12.50;;;9.37;;
13872;SDS011;7006;51.494;11.964;2022-09-19T07:58:30;9.80;;;8.30;;
13872;SDS011;7006;51.494;11.964;2022-09-19T08:00:57;11.90;;;9.37;;
13872;SDS011;7006;51.494;11.964;2022-09-19T08:03:23;14.50;;;10.33;;
13872;SDS011;7006;51.494;11.964;2022-09-19T08:05:51;12.40;;;9.10;;
13872;SDS011;7006;51.494;11.964;2022-09-19T08:08:19;11.00;;;8.80;;
13872;SDS011;7006;51.494;11.964;2022-09-19T08:10:46;13.17;;;9.60;;
13872;SDS011;7006;51.494;11.964;2022-09-19T08:13:13;16.03;;;9.90;;
13872;SDS011;7006;51.494;11.964;2022-09-19T08:15:40;11.33;;;9.80;;
13872;SDS011;7006;51.494;11.964;2022-09-19T08:18:07;10.50;;;9.37;;
13872;SDS011;7006;51.494;11.964;2022-09-19T08:20:37;12.83;;;9.90;;
13872;SDS011;7006;51.494;11.964;2022-09-19T08:23:05;10.73;;;9.50;;
13872;SDS011;7006;51.494;11.964;2022-09-19T08:25:34;10.03;;;8.83;;
13872;SDS011;7006;51.494;11.964;2022-09-19T08:28:01;10.80;;;9.03;;
13872;SDS011;7006;51.494;11.964;2022-09-19T08:30:28;10.40;;;8.40;;
13872;SDS011;7006;51.494;11.964;2022-09-19T08:32:55;8.80;;;7.90;;
13872;SDS011;7006;51.494;11.964;2022-09-19T08:35:22;9.60;;;7.87;;
13872;SDS011;7006;51.494;11.964;2022-09-19T08:37:52;8.27;;;7.30;;
13872;SDS011;7006;51.494;11.964;2022-09-19T08:40:19;8.60;;;7.70;;
13872;SDS011;7006;51.494;11.964;2022-09-19T08:42:57;7.70;;;6.63;;
13872;SDS011;7006;51.494;11.964;2022-09-19T08:45:26;7.80;;;6.90;;
13872;SDS011;7006;51.494;11.964;2022-09-19T08:47:53;7.27;;;6.57;;
13872;SDS011;7006;51.494;11.964;2022-09-19T08:50:22;7.67;;;6.97;;
13872;SDS011;7006;51.494;11.964;2022-09-19T08:52:51;10.97;;;7.60;;
13872;SDS011;7006;51.494;11.964;2022-09-19T08:55:20;7.10;;;6.00;;
13872;SDS011;7006;51.494;11.964;2022-09-19T08:57:49;7.20;;;6.50;;
13872;SDS011;7006;51.494;11.964;2022-09-19T09:00:18;8.90;;;6.93;;
13872;SDS011;7006;51.494;11.964;2022-09-19T09:02:46;6.27;;;5.50;;
13872;SDS011;7006;51.494;11.964;2022-09-19T09:05:13;8.70;;;5.57;;
13872;SDS011;7006;51.494;11.964;2022-09-19T09:07:42;6.63;;;5.83;;
13872;SDS011;7006;51.494;11.964;2022-09-19T09:10:16;7.67;;;6.33;;
13872;SDS011;7006;51.494;11.964;2022-09-19T09:12:47;7.10;;;6.27;;
13872;SDS011;7006;51.494;11.964;2022-09-19T09:15:22;8.17;;;5.37;;
13872;SDS011;7006;51.494;11.964;2022-09-19T09:17:54;6.50;;;5.30;;
13872;SDS011;7006;51.494;11.964;2022-09-19T09:20:25;9.83;;;4.87;;
13872;SDS011;7006;51.494;11.964;2022-09-19T09:22:59;8.87;;;5.43;;
13872;SDS011;7006;51.494;11.964;2022-09-19T09:25:29;6.03;;;5.00;;
13872;SDS011;7006;51.494;11.964;2022-09-19T09:27:58;8.97;;;5.10;;
13872;SDS011;7006;51.494;11.964;2022-09-19T09:30:29;7.07;;;5.97;;
13872;SDS011;7006;51.494;11.964;2022-09-19T09:32:57;6.10;;;5.33;;
13872;SDS011;7006;51.494;11.964;2022-09-19T09:35:27;7.50;;;5.50;;
13872;SDS011;7006;51.494;11.964;2022-09-19T09:37:56;7.53;;;4.80;;
13872;SDS011;7006;51.494;11.964;2022-09-19T09:40:30;6.43;;;4.93;;
13872;SDS011;7006;51.494;11.964;2022-09-19T09:43:14;5.87;;;4.43;;
13872;SDS011;7006;51.494;11.964;2022-09-19T09:45:44;4.67;;;4.10;;
13872;SDS011;7006;51.494;11.964;2022-09-19T09:48:11;5.37;;;3.87;;
13872;SDS011;7006;51.494;11.964;2022-09-19T09:50:44;4.87;;;3.40;;
13872;SDS011;7006;51.494;11.964;2022-09-19T09:53:17;3.77;;;2.97;;
13872;SDS011;7006;51.494;11.964;2022-09-19T09:55:47;5.07;;;3.40;;
13872;SDS011;7006;51.494;11.964;2022-09-19T09:58:35;4.07;;;3.10;;
13872;SDS011;7006;51.494;11.964;2022-09-19T10:01:19;4.10;;;2.90;;
13872;SDS011;7006;51.494;11.964;2022-09-19T10:04:07;4.00;;;2.90;;
13872;SDS011;7006;51.494;11.964;2022-09-19T10:06:37;5.80;;;3.03;;
13872;SDS011;7006;51.494;11.964;2022-09-19T10:09:06;3.47;;;2.10;;
13872;SDS011;7006;51.494;11.964;2022-09-19T10:11:36;3.27;;;2.47;;
13872;SDS011;7006;51.494;11.964;2022-09-19T10:14:04;5.00;;;2.70;;
13872;SDS011;7006;51.494;11.964;2022-09-19T10:16:35;4.80;;;2.80;;
13872;SDS011;7006;51.494;11.964;2022-09-19T10:19:02;7.20;;;2.50;;
13872;SDS011;7006;51.494;11.964;2022-09-19T10:21:32;4.00;;;2.30;;
13872;SDS011;7006;51.494;11.964;2022-09-19T10:23:58;3.30;;;2.50;;
13872;SDS011;7006;51.494;11.964;2022-09-19T10:26:26;4.03;;;2.07;;
13872;SDS011;7006;51.494;11.964;2022-09-19T10:28:53;5.07;;;2.53;;
13872;SDS011;7006;51.494;11.964;2022-09-19T10:31:29;5.10;;;2.57;;
13872;SDS011;7006;51.494;11.964;2022-09-19T10:33:58;3.43;;;2.50;;
13872;SDS011;7006;51.494;11.964;2022-09-19T10:36:29;6.97;;;2.73;;
13872;SDS011;7006;51.494;11.964;2022-09-19T10:38:59;4.60;;;2.70;;
13872;SDS011;7006;51.494;11.964;2022-09-19T10:41:26;6.60;;;2.63;;
13872;SDS011;7006;51.494;11.964;2022-09-19T10:43:54;5.63;;;2.30;;
13872;SDS011;7006;51.494;11.964;2022-09-19T10:46:21;2.97;;;2.40;;
13872;SDS011;7006;51.494;11.964;2022-09-19T10:48:50;3.07;;;2.30;;
13872;SDS011;7006;51.494;11.964;2022-09-19T10:51:18;3.50;;;2.17;;
13872;SDS011;7006;51.494;11.964;2022-09-19T10:53:46;4.30;;;2.10;;
13872;SDS011;7006;51.494;11.964;2022-09-19T10:56:17;3.80;;;2.90;;
13872;SDS011;7006;51.494;11.964;2022-09-19T10:58:47;6.77;;;3.33;;
13872;SDS011;7006;51.494;11.964;2022-09-19T11:01:19;4.77;;;2.50;;
13872;SDS011;7006;51.494;11.964;2022-09-19T11:03:56;5.67;;;2.20;;
13872;SDS011;7006;51.494;11.964;2022-09-19T11:06:24;3.53;;;2.43;;
13872;SDS011;7006;51.494;11.964;2022-09-19T11:08:51;4.70;;;2.80;;
13872;SDS011;7006;51.494;11.964;2022-09-19T11:11:21;3.77;;;2.27;;
13872;SDS011;7006;51.494;11.964;2022-09-19T11:13:57;4.83;;;2.47;;
13872;SDS011;7006;51.494;11.964;2022-09-19T11:16:32;6.10;;;2.57;;
13872;SDS011;7006;51.494;11.964;2022-09-19T11:19:06;5.83;;;2.73;;
13872;SDS011;7006;51.494;11.964;2022-09-19T11:21:42;4.93;;;2.80;;
13872;SDS011;7006;51.494;11.964;2022-09-19T11:24:17;4.10;;;1.77;;
13872;SDS011;7006;51.494;11.964;2022-09-19T11:26:53;6.20;;;2.10;;
13872;SDS011;7006;51.494;11.964;2022-09-19T11:29:39;3.17;;;2.30;;
13872;SDS011;7006;51.494;11.964;2022-09-19T11:32:11;4.63;;;2.40;;
13872;SDS011;7006;51.494;11.964;2022-09-19T11:34:41;5.10;;;2.40;;
13872;SDS011;7006;51.494;11.964;2022-09-19T11:37:13;4.70;;;2.90;;
13872;SDS011;7006;51.494;11.964;2022-09-19T11:39:46;5.40;;;2.73;;
13872;SDS011;7006;51.494;11.964;2022-09-19T11:42:17;4.97;;;2.60;;
13872;SDS011;7006;51.494;11.964;2022-09-19T11:44:55;3.33;;;2.30;;
13872;SDS011;7006;51.494;11.964;2022-09-19T11:47:28;4.57;;;1.67;;
13872;SDS011;7006;51.494;11.964;2022-09-19T11:52:43;3.20;;;1.60;;
13872;SDS011;7006;51.494;11.964;2022-09-19T11:55:15;3.60;;;1.97;;
13872;SDS011;7006;51.494;11.964;2022-09-19T11:57:44;4.47;;;2.00;;
13872;SDS011;7006;51.494;11.964;2022-09-19T12:00:12;6.33;;;1.90;;
13872;SDS011;7006;51.494;11.964;2022-09-19T12:02:48;4.40;;;1.70;;
13872;SDS011;7006;51.494;11.964;2022-09-19T12:05:21;4.87;;;2.60;;
13872;SDS011;7006;51.494;11.964;2022-09-19T12:07:53;4.30;;;2.50;;
13872;SDS011;7006;51.494;11.964;2022-09-19T12:10:25;5.60;;;2.13;;
13872;SDS011;7006;51.494;11.964;2022-09-19T12:12:55;3.73;;;1.97;;
13872;SDS011;7006;51.494;11.964;2022-09-19T12:15:24;4.13;;;1.97;;
13872;SDS011;7006;51.494;11.964;2022-09-19T12:17:53;4.03;;;1.70;;
13872;SDS011;7006;51.494;11.964;2022-09-19T12:20:22;3.20;;;1.43;;
13872;SDS011;7006;51.494;11.964;2022-09-19T12:22:53;2.97;;;1.50;;
13872;SDS011;7006;51.494;11.964;2022-09-19T12:25:21;5.70;;;2.00;;
13872;SDS011;7006;51.494;11.964;2022-09-19T12:27:49;3.03;;;1.83;;
13872;SDS011;7006;51.494;11.964;2022-09-19T12:30:17;5.33;;;2.30;;
13872;SDS011;7006;51.494;11.964;2022-09-19T12:32:46;4.57;;;2.40;;
13872;SDS011;7006;51.494;11.964;2022-09-19T12:35:14;4.23;;;2.23;;
13872;SDS011;7006;51.494;11.964;2022-09-19T12:37:44;3.60;;;2.00;;
13872;SDS011;7006;51.494;11.964;2022-09-19T12:40:19;4.30;;;1.90;;
13872;SDS011;7006;51.494;11.964;2022-09-19T12:42:49;3.70;;;1.63;;
13872;SDS011;7006;51.494;11.964;2022-09-19T12:45:19;3.73;;;1.53;;
13872;SDS011;7006;51.494;11.964;2022-09-19T12:47:54;5.67;;;1.63;;
13872;SDS011;7006;51.494;11.964;2022-09-19T12:50:23;3.37;;;1.23;;
13872;SDS011;7006;51.494;11.964;2022-09-19T12:53:03;4.07;;;1.40;;
13872;SDS011;7006;51.494;11.964;2022-09-19T12:55:36;3.13;;;1.10;;
13872;SDS011;7006;51.494;11.964;2022-09-19T12:58:05;2.97;;;1.47;;
13872;SDS011;7006;51.494;11.964;2022-09-19T13:00:36;2.10;;;0.90;;
13872;SDS011;7006;51.494;11.964;2022-09-19T13:03:10;3.70;;;0.97;;
13872;SDS011;7006;51.494;11.964;2022-09-19T13:05:39;3.37;;;0.93;;
13872;SDS011;7006;51.494;11.964;2022-09-19T13:08:08;4.43;;;1.00;;
13872;SDS011;7006;51.494;11.964;2022-09-19T13:10:37;4.10;;;0.90;;
13872;SDS011;7006;51.494;11.964;2022-09-19T13:13:05;2.77;;;0.80;;
13872;SDS011;7006;51.494;11.964;2022-09-19T13:15:37;2.50;;;1.13;;
13872;SDS011;7006;51.494;11.964;2022-09-19T13:18:05;2.13;;;1.03;;
13872;SDS011;7006;51.494;11.964;2022-09-19T13:20:55;5.50;;;3.70;;
13872;SDS011;7006;51.494;11.964;2022-09-19T13:23:39;3.70;;;1.43;;
13872;SDS011;7006;51.494;11.964;2022-09-19T13:26:17;2.60;;;1.00;;
13872;SDS011;7006;51.494;11.964;2022-09-19T13:28:47;1.67;;;0.63;;
13872;SDS011;7006;51.494;11.964;2022-09-19T13:31:14;1.90;;;1.00;;
13872;SDS011;7006;51.494;11.964;2022-09-19T13:33:43;4.03;;;0.70;;
13872;SDS011;7006;51.494;11.964;2022-09-19T13:36:11;4.87;;;0.60;;
13872;SDS011;7006;51.494;11.964;2022-09-19T13:38:38;1.60;;;0.70;;
13872;SDS011;7006;51.494;11.964;2022-09-19T13:41:05;3.63;;;1.80;;
13872;SDS011;7006;51.494;11.964;2022-09-19T13:43:37;2.30;;;1.00;;
13872;SDS011;7006;51.494;11.964;2022-09-19T13:46:09;5.10;;;1.23;;
13872;SDS011;7006;51.494;11.964;2022-09-19T13:48:39;1.90;;;1.00;;
13872;SDS011;7006;51.494;11.964;2022-09-19T13:51:08;1.97;;;0.80;;
13872;SDS011;7006;51.494;11.964;2022-09-19T13:53:38;2.17;;;0.50;;
13872;SDS011;7006;51.494;11.964;2022-09-19T13:56:22;3.00;;;0.67;;
13872;SDS011;7006;51.494;11.964;2022-09-19T14:01:40;1.80;;;0.47;;
13872;SDS011;7006;51.494;11.964;2022-09-19T14:04:18;2.93;;;0.60;;
13872;SDS011;7006;51.494;11.964;2022-09-19T14:07:02;3.20;;;0.70;;
13872;SDS011;7006;51.494;11.964;2022-09-19T14:09:33;2.57;;;0.70;;
13872;SDS011;7006;51.494;11.964;2022-09-19T14:12:00;2.37;;;1.00;;
13872;SDS011;7006;51.494;11.964;2022-09-19T14:17:24;7.97;;;2.07;;
13872;SDS011;7006;51.494;11.964;2022-09-19T14:19:54;3.30;;;1.50;;
13872;SDS011;7006;51.494;11.964;2022-09-19T14:22:39;3.60;;;1.30;;
13872;SDS011;7006;51.494;11.964;2022-09-19T14:25:12;5.00;;;2.00;;
13872;SDS011;7006;51.494;11.964;2022-09-19T14:33:15;2.00;;;1.00;;
13872;SDS011;7006;51.494;11.964;2022-09-19T14:35:53;7.10;;;1.30;;
13872;SDS011;7006;51.494;11.964;2022-09-19T14:38:25;2.80;;;1.10;;
13872;SDS011;7006;51.494;11.964;2022-09-19T14:41:01;3.50;;;1.83;;
13872;SDS011;7006;51.494;11.964;2022-09-19T14:43:55;3.60;;;1.40;;
13872;SDS011;7006;51.494;11.964;2022-09-19T14:46:27;3.60;;;1.63;;
13872;SDS011;7006;51.494;11.964;2022-09-19T14:51:42;9.47;;;2.60;;
13872;SDS011;7006;51.494;11.964;2022-09-19T14:54:14;3.50;;;2.03;;
13872;SDS011;7006;51.494;11.964;2022-09-19T14:56:50;5.27;;;2.67;;
13872;SDS011;7006;51.494;11.964;2022-09-19T14:59:18;5.23;;;1.80;;
13872;SDS011;7006;51.494;11.964;2022-09-19T15:01:47;2.70;;;1.37;;
13872;SDS011;7006;51.494;11.964;2022-09-19T15:04:16;3.40;;;2.00;;
13872;SDS011;7006;51.494;11.964;2022-09-19T15:06:46;3.80;;;2.40;;
13872;SDS011;7006;51.494;11.964;2022-09-19T15:09:17;8.17;;;7.27;;
13872;SDS011;7006;51.494;11.964;2022-09-19T15:11:53;6.37;;;3.80;;
13872;SDS011;7006;51.494;11.964;2022-09-19T15:14:21;11.43;;;7.47;;
13872;SDS011;7006;51.494;11.964;2022-09-19T15:16:48;8.80;;;3.50;;